Delemont, Switzerland
Current Conditions -  °F | °C
As of 5:50 PM on Friday 28 Nov 2014 (Local Time) from LSZG Reporting Station
Overcast Overcast  
Wind Chill: 37°   Ceiling: 800
Heat Index: 43°   Visibility: 6mi
Dew Point: 41°   Wind: 9mph
Humidity: 93%   Direction: 70°ENE
Pressure: 29.74"   Gusts: NA
Location:  47.37°N, 7.33°E
Report Text: LSZG 281650Z AUTO 07008KT 9999 OVC008 06/05 Q1007
Loading
Personal Weather Stations






























Interactive Weather Map New forecast layout! Learn more

10-Day Weather Forecast

Advertisements
Track Severe Weather on mobile